Louviers, Colorado
Current Conditions -  °F | °C
As of 1:53 AM on Wednesday 28 Jan 2015 (Local Time) from KAPA Reporting Station
Few Clouds Few Clouds  
Wind Chill: 36°   Ceiling: Unl
Heat Index: 41°   Visibility: 10mi
Dew Point: 22°   Wind: 8mph
Humidity: 47%   Direction: 240°WSW
Pressure: 30.02"   Gusts: NA
Location:  39.48°N, 105.01°W
Report Text: KAPA 280853Z 24007KT 10SM FEW130 05/M06 A3002 RMK AO2 SLP125 T00501056 55001
Loading
Personal Weather Stations






























Interactive Weather Map New forecast layout! Learn more

10-Day Weather Forecast

Advertisements
Track Severe Weather on mobile